createdAt,value
2023-02-06T06:02:13.228Z,0.00
2023-02-06T06:03:13.222Z,0.00
2023-02-06T06:04:13.282Z,0.00
2023-02-06T06:05:13.199Z,0.00
2023-02-06T06:06:13.190Z,0.00
2023-02-06T06:11:13.134Z,0.00
2023-02-06T06:12:13.125Z,0.00
2023-02-06T06:15:13.099Z,0.00
2023-02-06T06:17:13.072Z,0.00
2023-02-06T06:18:13.078Z,0.00
2023-02-06T06:19:13.104Z,0.00
2023-02-06T06:20:13.056Z,0.00
2023-02-06T06:21:13.030Z,0.00
2023-02-06T06:22:13.019Z,0.00
2023-02-06T06:23:13.011Z,0.00
2023-02-06T06:24:13.001Z,0.00
2023-02-06T06:25:12.990Z,0.00
2023-02-06T06:26:12.982Z,0.00
2023-02-06T06:27:12.971Z,0.00
2023-02-06T06:28:13.027Z,0.00
2023-02-06T06:29:13.002Z,0.00
2023-02-06T06:30:12.937Z,0.00
2023-02-06T06:31:13.086Z,0.00
2023-02-06T06:32:12.917Z,0.00
2023-02-06T06:33:12.909Z,0.00
2023-02-06T06:34:12.902Z,0.00
2023-02-06T06:35:12.884Z,0.00
2023-02-06T06:36:14.415Z,0.00
2023-02-06T06:37:12.867Z,0.00
2023-02-06T06:38:12.852Z,0.00
2023-02-06T06:39:12.847Z,0.00
2023-02-06T06:40:12.832Z,0.00
2023-02-06T06:41:12.825Z,0.00
2023-02-06T06:42:12.812Z,0.00
2023-02-06T06:43:12.803Z,0.00
2023-02-06T06:44:12.798Z,0.00
2023-02-06T06:45:12.811Z,5.62
2023-02-06T06:46:12.782Z,5.62
2023-02-06T06:47:12.759Z,5.62
2023-02-06T06:48:12.754Z,5.62
2023-02-06T06:49:12.738Z,5.62
2023-02-06T06:50:12.732Z,5.62
2023-02-06T06:51:12.722Z,5.62
2023-02-06T06:52:23.964Z,5.62
2023-02-06T06:53:13.747Z,5.62
2023-02-06T06:54:12.686Z,5.62
2023-02-06T06:55:12.676Z,5.62
2023-02-06T06:56:12.664Z,11.25
2023-02-06T06:57:12.658Z,11.25
2023-02-06T06:58:12.648Z,11.25
2023-02-06T06:59:12.636Z,11.25
2023-02-06T07:00:12.625Z,11.25
2023-02-06T07:01:12.814Z,11.25
2023-02-06T07:02:12.604Z,11.25
2023-02-06T07:03:12.678Z,11.25
2023-02-06T07:04:12.588Z,11.25
2023-02-06T07:05:12.572Z,16.87
2023-02-06T07:06:12.579Z,16.87
2023-02-06T07:07:12.639Z,16.87
2023-02-06T07:08:12.549Z,16.87
2023-02-06T07:09:12.537Z,16.87
2023-02-06T07:10:12.544Z,22.50
2023-02-06T07:11:12.515Z,22.50
2023-02-06T07:12:12.503Z,22.50
2023-02-06T07:13:12.489Z,22.50
2023-02-06T07:14:12.478Z,22.50
2023-02-06T07:15:12.474Z,22.50
2023-02-06T07:16:12.492Z,22.50
2023-02-06T07:17:12.480Z,22.50
2023-02-06T07:18:12.446Z,28.12
2023-02-06T07:19:12.430Z,28.12
2023-02-06T07:20:12.432Z,28.12
2023-02-06T07:21:12.413Z,28.12
2023-02-06T07:22:12.407Z,28.12
2023-02-06T07:23:12.401Z,28.12
2023-02-06T07:24:12.386Z,28.12
2023-02-06T07:25:12.371Z,28.12
2023-02-06T07:26:12.364Z,33.75
2023-02-06T07:27:12.351Z,33.75
2023-02-06T07:28:12.379Z,33.75
2023-02-06T07:29:12.332Z,33.75
2023-02-06T07:30:12.324Z,33.75
2023-02-06T07:31:12.314Z,33.75
2023-02-06T07:32:12.300Z,33.75
2023-02-06T07:33:12.329Z,39.37
2023-02-06T07:34:12.277Z,39.37
2023-02-06T07:35:12.278Z,39.37
2023-02-06T07:36:12.272Z,39.37
2023-02-06T07:37:12.251Z,39.37
2023-02-06T07:38:12.246Z,45.00
2023-02-06T07:39:12.230Z,45.00
2023-02-06T07:40:12.220Z,45.00
2023-02-06T07:41:12.816Z,50.62
2023-02-06T07:42:12.196Z,50.62
2023-02-06T07:43:12.187Z,50.62
2023-02-06T07:44:12.182Z,56.25
2023-02-06T07:45:12.170Z,56.25
2023-02-06T07:46:12.215Z,56.25
2023-02-06T07:47:12.150Z,56.25
2023-02-06T07:48:12.140Z,56.25
2023-02-06T07:49:12.223Z,56.25
2023-02-06T07:50:12.120Z,56.25
2023-02-06T07:51:12.109Z,61.87
2023-02-06T07:52:12.100Z,61.87
2023-02-06T07:53:12.087Z,61.87
2023-02-06T07:54:12.077Z,61.87
2023-02-06T07:55:12.069Z,67.50
2023-02-06T07:56:12.063Z,67.50
2023-02-06T07:57:12.050Z,67.50
2023-02-06T07:58:12.040Z,67.50
2023-02-06T07:59:12.026Z,67.50
2023-02-06T08:00:12.087Z,67.50
2023-02-06T08:01:12.055Z,67.50
2023-02-06T08:02:12.000Z,67.50
2023-02-06T08:03:11.991Z,67.50
2023-02-06T08:04:12.019Z,67.50
2023-02-06T08:05:11.997Z,67.50
2023-02-06T08:06:11.961Z,73.12
2023-02-06T08:07:11.946Z,73.12
2023-02-06T08:08:11.939Z,73.12
2023-02-06T08:09:11.932Z,73.12
2023-02-06T08:10:11.924Z,73.12
2023-02-06T08:11:11.908Z,78.75
2023-02-06T08:12:12.159Z,78.75
2023-02-06T08:13:11.888Z,78.75
2023-02-06T08:14:11.880Z,78.75
2023-02-06T08:15:11.872Z,78.75
2023-02-06T08:16:11.923Z,78.75
2023-02-06T08:17:11.846Z,78.75
2023-02-06T08:18:11.836Z,78.75
2023-02-06T08:19:11.828Z,84.37
2023-02-06T08:20:11.818Z,84.37
2023-02-06T08:21:11.837Z,84.37
2023-02-06T08:22:11.802Z,90.00
2023-02-06T08:23:11.788Z,90.00
2023-02-06T08:24:11.775Z,90.00
2023-02-06T08:25:11.765Z,90.00
2023-02-06T08:26:11.799Z,90.00
2023-02-06T08:27:11.768Z,90.00
2023-02-06T08:28:11.814Z,95.62
2023-02-06T08:29:11.786Z,95.62
2023-02-06T08:30:11.717Z,95.62
2023-02-06T08:31:11.833Z,95.62
2023-02-06T08:32:11.698Z,101.25
2023-02-06T08:33:11.690Z,101.25
2023-02-06T08:34:11.680Z,101.25
2023-02-06T08:35:11.690Z,101.25
2023-02-06T08:36:11.654Z,101.25
2023-02-06T08:37:11.778Z,106.87
2023-02-06T08:38:11.635Z,106.87
2023-02-06T08:39:11.626Z,106.87
2023-02-06T08:40:11.626Z,106.87
2023-02-06T08:41:11.604Z,106.87
2023-02-06T08:42:11.593Z,106.87
2023-02-06T08:43:11.583Z,112.50
2023-02-06T08:44:11.589Z,112.50
2023-02-06T08:45:11.564Z,118.12
2023-02-06T08:46:11.623Z,118.12
2023-02-06T08:47:11.546Z,118.12
2023-02-06T08:48:11.534Z,118.12
2023-02-06T08:49:11.529Z,123.75
2023-02-06T08:50:11.516Z,123.75
2023-02-06T08:51:11.501Z,123.75
2023-02-06T08:52:11.496Z,129.37
2023-02-06T08:53:11.558Z,135.00
2023-02-06T08:54:11.478Z,135.00
2023-02-06T08:55:11.463Z,140.62
2023-02-06T08:56:11.458Z,146.25
2023-02-06T08:57:11.447Z,146.25
2023-02-06T08:58:11.434Z,151.87
2023-02-06T08:59:11.420Z,151.87
2023-02-06T09:00:11.420Z,151.87
2023-02-06T09:01:11.429Z,157.50
2023-02-06T09:02:11.466Z,163.12
2023-02-06T09:03:11.382Z,163.12
2023-02-06T09:04:11.375Z,168.75
2023-02-06T09:05:11.364Z,174.37
2023-02-06T09:06:11.350Z,180.00
2023-02-06T09:07:11.346Z,180.00
2023-02-06T09:08:11.329Z,191.25
2023-02-06T09:09:11.345Z,191.25
2023-02-06T09:10:22.135Z,196.87
2023-02-06T09:11:12.326Z,196.87
2023-02-06T09:12:11.317Z,196.87
2023-02-06T09:13:11.280Z,196.87
2023-02-06T09:14:11.271Z,202.50
2023-02-06T09:15:11.261Z,208.12
2023-02-06T09:16:11.308Z,213.75
2023-02-06T09:17:11.242Z,219.37
2023-02-06T09:18:11.231Z,225.00
2023-02-06T09:19:11.219Z,230.62
2023-02-06T09:20:11.214Z,230.62
2023-02-06T09:21:11.205Z,236.25
2023-02-06T09:22:11.199Z,236.25
2023-02-06T09:23:11.177Z,236.25
2023-02-06T09:24:11.166Z,236.25
2023-02-06T09:25:11.182Z,236.25
2023-02-06T09:26:11.147Z,236.25
2023-02-06T09:27:11.141Z,236.25
2023-02-06T09:28:11.186Z,230.62
2023-02-06T09:29:11.116Z,225.00
2023-02-06T09:30:11.104Z,219.37
2023-02-06T09:31:11.209Z,219.37
2023-02-06T09:32:11.087Z,219.37
2023-02-06T09:33:11.080Z,225.00
2023-02-06T09:34:11.073Z,230.62
2023-02-06T09:35:11.055Z,236.25
2023-02-06T09:36:11.047Z,236.25
2023-02-06T09:37:11.031Z,241.87
2023-02-06T09:38:11.023Z,247.50
2023-02-06T09:39:11.017Z,253.12
2023-02-06T09:40:11.006Z,253.12
2023-02-06T09:41:11.039Z,258.75
2023-02-06T09:42:10.996Z,264.37
2023-02-06T09:43:10.974Z,264.37
2023-02-06T09:44:10.964Z,270.00
2023-02-06T09:45:10.951Z,270.00
2023-02-06T09:46:10.967Z,270.00
2023-02-06T09:47:10.932Z,270.00
2023-02-06T09:48:10.923Z,270.00
2023-02-06T09:49:10.911Z,270.00
2023-02-06T09:50:10.901Z,270.00
2023-02-06T09:51:10.888Z,270.00
2023-02-06T09:52:10.875Z,270.00
2023-02-06T09:53:10.870Z,270.00
2023-02-06T09:54:10.858Z,270.00
2023-02-06T09:55:10.845Z,275.62
2023-02-06T09:56:10.834Z,281.25
2023-02-06T09:57:10.869Z,281.25
2023-02-06T09:58:10.815Z,281.25
2023-02-06T09:59:10.825Z,275.62
2023-02-06T10:00:10.795Z,270.00
2023-02-06T10:01:10.790Z,270.00
2023-02-06T10:02:10.775Z,270.00
2023-02-06T10:03:10.762Z,270.00
2023-02-06T10:04:10.814Z,270.00
2023-02-06T10:05:10.747Z,275.62
2023-02-06T10:06:10.736Z,275.62
2023-02-06T10:07:10.720Z,281.25
2023-02-06T10:08:10.715Z,281.25
2023-02-06T10:09:10.856Z,281.25
2023-02-06T10:10:10.693Z,281.25
2023-02-06T10:11:10.680Z,275.62
2023-02-06T10:12:10.673Z,281.25
2023-02-06T10:13:10.690Z,286.87
2023-02-06T10:14:10.651Z,292.50
2023-02-06T10:15:10.640Z,298.12
2023-02-06T10:16:11.844Z,298.12
2023-02-06T10:17:10.622Z,292.50
2023-02-06T10:18:10.611Z,281.25
2023-02-06T10:19:10.605Z,275.62
2023-02-06T10:20:10.597Z,275.62
2023-02-06T10:21:10.580Z,275.62
2023-02-06T10:22:10.568Z,281.25
2023-02-06T10:23:10.581Z,286.87
2023-02-06T10:24:10.553Z,292.50
2023-02-06T10:25:10.534Z,303.75
2023-02-06T10:26:10.524Z,320.62
2023-02-06T10:27:10.523Z,326.25
2023-02-06T10:28:10.515Z,331.87
2023-02-06T10:29:10.528Z,326.25
2023-02-06T10:30:10.490Z,320.62
2023-02-06T10:31:10.538Z,315.00
2023-02-06T10:32:10.472Z,309.37
2023-02-06T10:33:23.950Z,303.75
2023-02-06T10:34:10.450Z,303.75
2023-02-06T10:35:10.437Z,309.37
2023-02-06T10:36:10.429Z,309.37
2023-02-06T10:37:10.424Z,303.75
2023-02-06T10:38:10.414Z,286.87
2023-02-06T10:39:10.401Z,275.62
2023-02-06T10:40:10.390Z,270.00
2023-02-06T10:41:10.379Z,264.37
2023-02-06T10:42:10.380Z,258.75
2023-02-06T10:43:10.370Z,253.12
2023-02-06T10:44:10.352Z,241.87
2023-02-06T10:45:19.739Z,236.25
2023-02-06T10:46:11.361Z,236.25
2023-02-06T10:47:10.319Z,236.25
2023-02-06T10:48:10.310Z,236.25
2023-02-06T10:49:10.307Z,230.62
2023-02-06T10:50:10.294Z,225.00
2023-02-06T10:51:10.284Z,219.37
2023-02-06T10:52:10.273Z,219.37
2023-02-06T10:53:10.262Z,213.75
2023-02-06T10:54:10.251Z,208.12
2023-02-06T10:55:10.246Z,202.50
2023-02-06T10:56:10.230Z,196.87
2023-02-06T10:57:10.225Z,196.87
2023-02-06T10:58:10.214Z,191.25
2023-02-06T10:59:10.203Z,185.62
2023-02-06T11:00:10.192Z,185.62
2023-02-06T11:01:23.926Z,180.00
2023-02-06T11:02:11.252Z,180.00
2023-02-06T11:03:10.157Z,174.37
2023-02-06T11:04:10.146Z,174.37
2023-02-06T11:05:10.160Z,174.37
2023-02-06T11:06:10.130Z,174.37
2023-02-06T11:07:10.119Z,174.37
2023-02-06T11:08:10.110Z,174.37
2023-02-06T11:09:10.094Z,174.37
2023-02-06T11:10:10.089Z,174.37
2023-02-06T11:11:10.079Z,174.37
2023-02-06T11:12:10.069Z,180.00
2023-02-06T11:13:10.057Z,180.00
2023-02-06T11:14:10.046Z,185.62
2023-02-06T11:15:10.038Z,185.62
2023-02-06T11:16:10.048Z,185.62
2023-02-06T11:17:10.054Z,185.62
2023-02-06T11:18:10.012Z,185.62
2023-02-06T11:19:09.996Z,185.62
2023-02-06T11:20:09.985Z,180.00
2023-02-06T11:21:09.972Z,180.00
2023-02-06T11:22:09.966Z,174.37
2023-02-06T11:23:10.052Z,174.37
2023-02-06T11:24:09.952Z,174.37
2023-02-06T11:25:09.933Z,174.37
2023-02-06T11:26:09.923Z,174.37
2023-02-06T11:27:09.909Z,180.00
2023-02-06T11:28:09.936Z,180.00
2023-02-06T11:29:10.041Z,185.62
2023-02-06T11:30:09.881Z,191.25
2023-02-06T11:31:10.073Z,202.50
2023-02-06T11:32:09.859Z,213.75
2023-02-06T11:33:09.886Z,225.00
2023-02-06T11:34:09.842Z,236.25
2023-02-06T11:35:09.830Z,241.87
2023-02-06T11:36:09.824Z,253.12
2023-02-06T11:37:09.804Z,258.75
2023-02-06T11:38:09.804Z,270.00
2023-02-06T11:39:09.784Z,270.00
2023-02-06T11:40:09.778Z,281.25
2023-02-06T11:41:09.767Z,292.50
2023-02-06T11:42:09.754Z,309.37
2023-02-06T11:43:09.745Z,326.25
2023-02-06T11:44:09.733Z,343.12
2023-02-06T11:45:09.725Z,354.37
2023-02-06T11:46:09.798Z,360.00
2023-02-06T11:47:09.703Z,365.62
2023-02-06T11:48:09.736Z,365.62
2023-02-06T11:49:09.710Z,365.62
2023-02-06T11:50:09.671Z,371.25
2023-02-06T11:51:09.665Z,371.25
2023-02-06T11:52:09.656Z,376.87
2023-02-06T11:53:09.642Z,393.75
2023-02-06T11:54:09.630Z,405.00
2023-02-06T11:55:09.623Z,427.50
2023-02-06T11:56:09.613Z,444.37
2023-02-06T11:57:09.608Z,466.87
2023-02-06T11:58:09.588Z,478.12
2023-02-06T11:59:09.581Z,483.75
2023-02-06T12:00:09.574Z,489.37
2023-02-06T12:01:09.583Z,506.25
2023-02-06T12:02:09.606Z,528.75
2023-02-06T12:03:09.594Z,551.25
2023-02-06T12:04:09.532Z,562.50
2023-02-06T12:05:09.553Z,573.75
2023-02-06T12:06:09.513Z,596.25
2023-02-06T12:07:09.510Z,618.75
2023-02-06T12:08:09.492Z,646.87
2023-02-06T12:09:09.480Z,663.75
2023-02-06T12:10:09.467Z,720.00
2023-02-06T12:11:11.562Z,793.12
2023-02-06T12:12:09.454Z,725.62
2023-02-06T12:13:09.442Z,686.25
2023-02-06T12:14:09.432Z,669.37
2023-02-06T12:15:33.011Z,658.12
2023-02-06T12:16:10.428Z,630.00
2023-02-06T12:17:09.398Z,618.75
2023-02-06T12:18:09.388Z,618.75
2023-02-06T12:19:09.380Z,630.00
2023-02-06T12:20:09.367Z,635.62
2023-02-06T12:21:09.381Z,624.37
2023-02-06T12:22:09.350Z,607.50
2023-02-06T12:23:09.337Z,590.62
2023-02-06T12:24:09.325Z,556.87
2023-02-06T12:25:09.314Z,528.75
2023-02-06T12:26:09.308Z,511.87
2023-02-06T12:27:09.298Z,495.00
2023-02-06T12:28:09.321Z,483.75
2023-02-06T12:29:09.274Z,461.25
2023-02-06T12:30:09.264Z,433.12
2023-02-06T12:31:09.405Z,405.00
2023-02-06T12:32:09.244Z,376.87
2023-02-06T12:33:09.230Z,365.62
2023-02-06T12:34:09.222Z,348.75
2023-02-06T12:35:09.208Z,337.50
2023-02-06T12:36:09.203Z,326.25
2023-02-06T12:37:09.221Z,320.62
2023-02-06T12:38:09.180Z,315.00
2023-02-06T12:39:09.174Z,303.75
2023-02-06T12:40:09.158Z,292.50
2023-02-06T12:41:09.155Z,286.87
2023-02-06T12:42:09.135Z,281.25
2023-02-06T12:43:09.124Z,275.62
2023-02-06T12:44:09.115Z,270.00
2023-02-06T12:45:09.103Z,264.37
2023-02-06T12:46:09.133Z,258.75
2023-02-06T12:47:09.086Z,253.12
2023-02-06T12:48:11.892Z,247.50
2023-02-06T12:49:09.165Z,241.87
2023-02-06T12:50:09.075Z,241.87
2023-02-06T12:51:09.045Z,241.87
2023-02-06T12:52:09.033Z,241.87
2023-02-06T12:53:09.048Z,241.87
2023-02-06T12:54:09.012Z,241.87
2023-02-06T12:55:09.010Z,241.87
2023-02-06T12:56:08.995Z,230.62
2023-02-06T12:57:08.978Z,219.37
2023-02-06T12:58:08.969Z,208.12
2023-02-06T12:59:08.962Z,196.87
2023-02-06T13:00:08.954Z,185.62
2023-02-06T13:01:20.822Z,180.00
2023-02-06T13:02:09.963Z,180.00
2023-02-06T13:03:09.031Z,180.00
2023-02-06T13:04:08.912Z,174.37
2023-02-06T13:05:08.903Z,174.37
2023-02-06T13:06:08.888Z,174.37
2023-02-06T13:07:08.883Z,174.37
2023-02-06T13:08:08.889Z,174.37
2023-02-06T13:09:08.922Z,174.37
2023-02-06T13:10:08.865Z,174.37
2023-02-06T13:11:08.844Z,174.37
2023-02-06T13:12:08.838Z,168.75
2023-02-06T13:13:08.823Z,157.50
2023-02-06T13:14:08.810Z,151.87
2023-02-06T13:15:08.804Z,146.25
2023-02-06T13:16:08.811Z,146.25
2023-02-06T13:17:08.779Z,146.25
2023-02-06T13:18:08.769Z,146.25
2023-02-06T13:19:08.760Z,151.87
2023-02-06T13:20:08.826Z,151.87
2023-02-06T13:21:08.739Z,151.87
2023-02-06T13:22:08.727Z,146.25
2023-02-06T13:23:08.723Z,140.62
2023-02-06T13:24:08.712Z,135.00
2023-02-06T13:25:08.733Z,129.37
2023-02-06T13:26:08.693Z,129.37
2023-02-06T13:27:08.728Z,123.75
2023-02-06T13:28:08.721Z,123.75
2023-02-06T13:29:08.660Z,123.75
2023-02-06T13:30:08.719Z,123.75
2023-02-06T13:31:08.709Z,129.37
2023-02-06T13:32:08.632Z,129.37
2023-02-06T13:33:08.628Z,129.37
2023-02-06T13:34:08.612Z,135.00
2023-02-06T13:35:08.605Z,129.37
2023-02-06T13:36:08.592Z,129.37
2023-02-06T13:37:08.582Z,129.37
2023-02-06T13:38:08.570Z,129.37
2023-02-06T13:39:08.559Z,129.37
2023-02-06T13:40:08.567Z,129.37
2023-02-06T13:41:08.567Z,129.37
2023-02-06T13:42:08.532Z,129.37
2023-02-06T13:43:08.525Z,129.37
2023-02-06T13:44:08.512Z,135.00
2023-02-06T13:45:08.500Z,135.00
2023-02-06T13:46:08.547Z,140.62
2023-02-06T13:47:08.491Z,140.62
2023-02-06T13:48:08.469Z,140.62
2023-02-06T13:49:08.461Z,140.62
2023-02-06T13:50:08.556Z,140.62
2023-02-06T13:51:08.438Z,140.62
2023-02-06T13:52:08.433Z,140.62
2023-02-06T13:53:08.417Z,140.62
2023-02-06T13:54:08.410Z,140.62
2023-02-06T13:55:08.396Z,140.62
2023-02-06T13:56:08.394Z,140.62
2023-02-06T13:57:08.406Z,140.62
2023-02-06T13:58:08.369Z,146.25
2023-02-06T13:59:08.359Z,146.25
2023-02-06T14:00:08.353Z,146.25
2023-02-06T14:01:08.340Z,146.25
2023-02-06T14:02:08.331Z,151.87
2023-02-06T14:03:08.328Z,157.50
2023-02-06T14:04:08.306Z,151.87
2023-02-06T14:05:08.296Z,146.25
2023-02-06T14:06:08.288Z,146.25
2023-02-06T14:07:08.281Z,146.25
2023-02-06T14:08:08.268Z,151.87
2023-02-06T14:09:08.257Z,151.87
2023-02-06T14:10:08.269Z,151.87
2023-02-06T14:11:08.232Z,146.25
2023-02-06T14:12:08.225Z,135.00
2023-02-06T14:13:08.259Z,129.37
2023-02-06T14:14:08.205Z,129.37
2023-02-06T14:15:08.201Z,123.75
2023-02-06T14:16:08.229Z,118.12
2023-02-06T14:17:08.172Z,112.50
2023-02-06T14:18:08.165Z,112.50
2023-02-06T14:19:08.152Z,112.50
2023-02-06T14:20:08.140Z,112.50
2023-02-06T14:21:08.129Z,118.12
2023-02-06T14:22:08.117Z,118.12
2023-02-06T14:23:08.107Z,118.12
2023-02-06T14:24:08.096Z,118.12
2023-02-06T14:25:09.541Z,106.87
2023-02-06T14:26:08.075Z,101.25
2023-02-06T14:27:08.065Z,95.62
2023-02-06T14:28:08.122Z,90.00
2023-02-06T14:29:08.076Z,90.00
2023-02-06T14:30:08.043Z,90.00
2023-02-06T14:31:08.112Z,90.00
2023-02-06T14:32:08.014Z,84.37
2023-02-06T14:33:08.010Z,84.37
2023-02-06T14:34:07.990Z,78.75
2023-02-06T14:35:07.988Z,78.75
2023-02-06T14:36:07.975Z,73.12
2023-02-06T14:37:07.967Z,73.12
2023-02-06T14:38:07.955Z,73.12
2023-02-06T14:39:07.949Z,73.12
2023-02-06T14:40:07.932Z,73.12
2023-02-06T14:41:07.920Z,67.50
2023-02-06T14:42:07.910Z,67.50
2023-02-06T14:43:07.904Z,67.50
2023-02-06T14:44:07.889Z,67.50
2023-02-06T14:45:07.942Z,67.50
2023-02-06T14:46:08.675Z,67.50
2023-02-06T14:47:07.864Z,61.87
2023-02-06T14:48:07.852Z,61.87
2023-02-06T14:49:07.848Z,61.87
2023-02-06T14:50:07.832Z,56.25
2023-02-06T14:51:07.822Z,56.25
2023-02-06T14:52:07.817Z,50.62
2023-02-06T14:53:07.801Z,50.62
2023-02-06T14:54:07.802Z,50.62
2023-02-06T14:55:07.781Z,50.62
2023-02-06T14:56:07.778Z,45.00
2023-02-06T14:57:07.767Z,45.00
2023-02-06T14:58:07.757Z,45.00
2023-02-06T14:59:07.894Z,45.00
2023-02-06T15:00:07.728Z,45.00
2023-02-06T15:01:07.802Z,45.00
2023-02-06T15:02:07.719Z,45.00
2023-02-06T15:03:07.705Z,39.37
2023-02-06T15:04:07.696Z,39.37
2023-02-06T15:05:07.681Z,39.37
2023-02-06T15:06:07.677Z,33.75
2023-02-06T15:07:07.766Z,33.75
2023-02-06T15:08:07.662Z,33.75
2023-02-06T15:09:07.645Z,28.12
2023-02-06T15:10:07.631Z,28.12
2023-02-06T15:11:07.621Z,28.12
2023-02-06T15:12:07.713Z,28.12
2023-02-06T15:13:07.602Z,28.12
2023-02-06T15:14:07.592Z,28.12
2023-02-06T15:15:07.591Z,28.12
2023-02-06T15:16:07.627Z,28.12
2023-02-06T15:17:07.642Z,28.12
2023-02-06T15:18:07.561Z,28.12
2023-02-06T15:19:07.542Z,28.12
2023-02-06T15:20:07.536Z,28.12
2023-02-06T15:21:07.522Z,28.12
2023-02-06T15:22:07.510Z,28.12
2023-02-06T15:23:16.991Z,28.12
2023-02-06T15:24:08.512Z,28.12
2023-02-06T15:25:07.485Z,28.12
2023-02-06T15:26:07.482Z,28.12
2023-02-06T15:27:07.468Z,28.12
2023-02-06T15:28:07.495Z,22.50
2023-02-06T15:29:07.449Z,28.12
2023-02-06T15:30:07.442Z,28.12
2023-02-06T15:31:07.427Z,22.50
2023-02-06T15:32:07.419Z,22.50
2023-02-06T15:33:07.439Z,22.50
2023-02-06T15:34:07.398Z,28.12
2023-02-06T15:35:07.388Z,28.12
2023-02-06T15:36:07.376Z,28.12
2023-02-06T15:37:07.370Z,28.12
2023-02-06T15:38:07.359Z,28.12
2023-02-06T15:39:07.351Z,28.12
2023-02-06T15:40:07.337Z,28.12
2023-02-06T15:41:07.344Z,28.12
2023-02-06T15:42:07.318Z,22.50
2023-02-06T15:43:07.306Z,22.50
2023-02-06T15:44:07.306Z,16.87
2023-02-06T15:45:07.286Z,16.87
2023-02-06T15:46:07.332Z,16.87
2023-02-06T15:47:07.268Z,16.87
2023-02-06T15:48:07.259Z,16.87
2023-02-06T15:49:07.276Z,16.87
2023-02-06T15:50:07.238Z,16.87
2023-02-06T15:51:07.228Z,16.87
2023-02-06T15:52:07.219Z,16.87
2023-02-06T15:53:07.207Z,16.87
2023-02-06T15:54:07.208Z,16.87
2023-02-06T15:55:07.182Z,16.87
2023-02-06T15:56:07.173Z,16.87
2023-02-06T15:57:07.180Z,16.87
2023-02-06T15:58:07.156Z,11.25
2023-02-06T15:59:07.145Z,11.25
2023-02-06T16:00:07.142Z,16.87
2023-02-06T16:01:07.203Z,16.87
2023-02-06T16:02:07.132Z,16.87
2023-02-06T16:03:07.110Z,16.87
2023-02-06T16:04:07.097Z,16.87
2023-02-06T16:05:07.186Z,16.87
2023-02-06T16:06:07.072Z,11.25
2023-02-06T16:07:07.063Z,11.25
2023-02-06T16:08:07.050Z,11.25
2023-02-06T16:09:07.048Z,11.25
2023-02-06T16:10:07.052Z,11.25
2023-02-06T16:11:07.023Z,11.25
2023-02-06T16:12:07.014Z,11.25
2023-02-06T16:13:07.000Z,11.25
2023-02-06T16:14:06.988Z,11.25
2023-02-06T16:15:06.983Z,5.62
2023-02-06T16:16:07.036Z,5.62
2023-02-06T16:17:06.960Z,5.62
2023-02-06T16:18:06.946Z,5.62
2023-02-06T16:19:06.940Z,5.62
2023-02-06T16:20:06.933Z,5.62
2023-02-06T16:21:06.943Z,5.62
2023-02-06T16:22:06.907Z,5.62
2023-02-06T16:23:06.897Z,5.62
2023-02-06T16:24:06.921Z,5.62
2023-02-06T16:25:06.881Z,5.62
2023-02-06T16:26:06.876Z,0.00
2023-02-06T16:27:06.855Z,0.00
2023-02-06T16:28:06.873Z,0.00
2023-02-06T16:29:06.836Z,0.00
2023-02-06T16:30:06.823Z,0.00
2023-02-06T16:31:06.959Z,0.00
2023-02-06T16:32:06.842Z,0.00
2023-02-06T16:33:06.787Z,0.00
2023-02-06T16:34:06.778Z,0.00
2023-02-06T16:35:06.770Z,0.00
2023-02-06T16:36:06.763Z,0.00
2023-02-06T16:37:06.773Z,0.00
2023-02-06T16:38:06.738Z,0.00
2023-02-06T16:39:06.733Z,0.00
2023-02-06T16:40:06.717Z,0.00
2023-02-06T16:41:06.709Z,0.00
2023-02-06T16:42:06.707Z,0.00
2023-02-06T16:43:06.684Z,0.00
2023-02-06T16:44:06.670Z,0.00
2023-02-06T16:45:06.664Z,0.00
2023-02-06T16:46:06.704Z,0.00
2023-02-06T16:47:06.653Z,0.00
2023-02-06T16:48:06.628Z,0.00
2023-02-06T16:49:06.622Z,0.00
2023-02-06T16:50:07.614Z,0.00
2023-02-06T16:51:06.601Z,0.00
2023-02-06T16:52:06.588Z,0.00
2023-02-06T16:53:06.598Z,0.00
2023-02-06T16:54:06.568Z,0.00
2023-02-06T16:55:06.560Z,0.00
2023-02-06T16:56:06.542Z,0.00
2023-02-06T16:57:06.536Z,0.00
2023-02-06T16:58:06.525Z,0.00
2023-02-06T16:59:06.515Z,0.00
2023-02-06T17:00:06.504Z,0.00
2023-02-06T17:01:06.591Z,0.00
2023-02-06T17:02:06.482Z,0.00
2023-02-06T17:03:06.475Z,0.00
2023-02-06T17:04:06.481Z,0.00
2023-02-06T17:05:06.485Z,0.00
2023-02-06T17:06:06.445Z,0.00
2023-02-06T17:07:06.433Z,0.00
2023-02-06T17:08:06.421Z,0.00
2023-02-06T17:09:06.441Z,0.00
2023-02-06T17:10:06.402Z,0.00
2023-02-06T17:11:06.392Z,0.00
2023-02-06T17:12:06.381Z,0.00
2023-02-06T17:13:06.370Z,0.00
2023-02-06T17:14:06.358Z,0.00
2023-02-06T17:15:06.361Z,0.00
2023-02-06T17:16:06.388Z,0.00
2023-02-06T17:17:06.330Z,0.00
2023-02-06T17:18:06.317Z,0.00
2023-02-06T17:19:06.317Z,0.00
2023-02-06T17:20:06.300Z,0.00
2023-02-06T17:21:06.286Z,0.00
2023-02-06T17:22:06.279Z,0.00
2023-02-06T17:23:06.271Z,0.00
2023-02-06T17:24:06.261Z,0.00
2023-02-06T17:25:06.286Z,0.00
2023-02-06T17:26:06.238Z,0.00
2023-02-06T17:27:06.238Z,0.00
2023-02-06T17:28:06.250Z,0.00
2023-02-06T17:29:06.208Z,0.00
2023-02-06T17:30:06.223Z,0.00
2023-02-06T17:31:06.322Z,0.00
2023-02-06T17:32:06.194Z,0.00
2023-02-06T17:33:06.174Z,0.00
2023-02-06T17:34:06.159Z,0.00
2023-02-06T17:35:06.149Z,0.00
2023-02-06T17:36:07.847Z,0.00
2023-02-06T17:37:06.138Z,0.00
2023-02-06T17:38:06.124Z,0.00
2023-02-06T17:39:06.118Z,0.00
2023-02-06T17:40:06.217Z,0.00
2023-02-06T17:41:06.125Z,0.00
2023-02-06T17:42:06.118Z,0.00
2023-02-06T17:43:06.074Z,0.00
2023-02-06T17:44:06.066Z,0.00
2023-02-06T17:45:06.062Z,0.00
2023-02-06T17:46:06.132Z,0.00
2023-02-06T17:47:06.038Z,0.00
2023-02-06T17:48:06.031Z,0.00
2023-02-06T17:49:06.022Z,0.00
2023-02-06T17:50:06.112Z,0.00
2023-02-06T17:51:05.997Z,0.00
2023-02-06T17:52:05.988Z,0.00
2023-02-06T17:53:05.987Z,0.00
2023-02-06T17:54:06.416Z,0.00
2023-02-06T17:55:05.958Z,0.00
2023-02-06T17:56:05.953Z,0.00
2023-02-06T17:57:05.970Z,0.00
2023-02-06T17:58:05.983Z,0.00
2023-02-06T17:59:05.961Z,0.00
2023-02-06T18:00:05.912Z,0.00
2023-02-06T18:01:05.907Z,0.00
2023-02-06T18:02:06.043Z,0.00
2023-02-06T18:03:05.947Z,0.00
2023-02-06T18:04:05.872Z,0.00
2023-02-06T18:05:05.862Z,0.00
2023-02-06T18:06:05.856Z,0.00
2023-02-06T18:07:05.900Z,0.00
2023-02-06T18:08:05.834Z,0.00
2023-02-06T18:09:05.824Z,0.00
2023-02-06T18:10:05.813Z,0.00
2023-02-06T18:11:05.801Z,0.00
2023-02-06T18:12:05.790Z,0.00
2023-02-06T18:13:05.866Z,0.00
2023-02-06T18:14:05.775Z,0.00
2023-02-06T18:15:05.767Z,0.00
2023-02-06T18:16:05.890Z,0.00
2023-02-06T18:17:05.759Z,0.00
2023-02-06T18:18:05.786Z,0.00
2023-02-06T18:19:05.737Z,0.00
2023-02-06T18:20:05.717Z,0.00
2023-02-06T18:21:05.706Z,0.00
2023-02-06T18:22:05.696Z,0.00
2023-02-06T18:23:05.684Z,0.00
2023-02-06T18:24:05.825Z,0.00
2023-02-06T18:25:05.667Z,0.00
2023-02-06T18:26:05.663Z,0.00
2023-02-06T18:27:05.643Z,0.00
2023-02-06T18:28:05.676Z,0.00
2023-02-06T18:29:05.771Z,0.00
2023-02-06T18:30:05.614Z,0.00
2023-02-06T18:31:05.709Z,0.00
2023-02-06T18:32:05.592Z,0.00
2023-02-06T18:33:05.604Z,0.00
2023-02-06T18:34:05.621Z,0.00
2023-02-06T18:35:05.562Z,0.00
2023-02-06T18:36:05.561Z,0.00
2023-02-06T18:37:05.546Z,0.00
2023-02-06T18:38:05.536Z,0.00
2023-02-06T18:39:05.545Z,0.00
2023-02-06T18:40:05.522Z,0.00
2023-02-06T18:41:05.504Z,0.00
2023-02-06T18:42:05.499Z,0.00
2023-02-06T18:43:05.483Z,0.00
2023-02-06T18:44:05.475Z,0.00
2023-02-06T18:45:05.695Z,0.00
2023-02-06T18:46:05.456Z,0.00
2023-02-06T18:47:05.454Z,0.00
2023-02-06T18:48:05.438Z,0.00
2023-02-06T18:49:05.429Z,0.00
2023-02-06T18:50:05.567Z,0.00
2023-02-06T18:51:05.403Z,0.00
2023-02-06T18:52:05.395Z,0.00
2023-02-06T18:53:05.387Z,0.00
2023-02-06T18:54:05.373Z,0.00
2023-02-06T18:55:05.363Z,0.00
2023-02-06T18:56:05.360Z,0.00
2023-02-06T18:57:05.345Z,0.00